Time;durP1;ratioP1;P1;durP2;ratioP2;P2;SDS_P1;SDS_P2;PMS_P1;PMS_P2;Temp;Humidity;BMP_temperature;BMP_pressure;BME280_temperature;BME280_humidity;BME280_pressure;Samples;Min_cycle;Max_cycle;Signal;HPM_P1;HPM_P2
2022/07/07 00:00:46;;;;;;;5.15;2.28;;;20.10;87.10;;;17.91;77.04;100975.94;5069567;28;20503;-84
2022/07/07 00:03:13;;;;;;;7.60;2.20;;;20.00;86.60;;;17.93;77.52;100973.78;5059694;28;20137;-84
2022/07/07 00:05:40;;;;;;;11.48;3.00;;;20.10;86.80;;;17.90;77.93;100985.28;5048274;28;20052;-84
2022/07/07 00:08:08;;;;;;;5.13;2.10;;;20.10;87.10;;;17.91;79.02;100981.44;5048484;28;20044;-84
2022/07/07 00:10:35;;;;;;;8.38;2.45;;;20.10;87.60;;;17.92;79.25;100981.22;5055987;28;20116;-84
2022/07/07 00:13:02;;;;;;;6.68;2.50;;;20.10;88.10;;;17.90;79.05;100983.34;5047362;28;20472;-83
2022/07/07 00:15:31;;;;;;;6.63;2.35;;;20.00;87.80;;;17.91;78.79;100987.78;5049308;28;20452;-84
2022/07/07 00:17:58;;;;;;;8.43;2.30;;;20.10;87.90;;;17.94;78.63;100986.50;5049679;28;20091;-84
2022/07/07 00:20:26;;;;;;;10.75;2.92;;;20.10;87.90;;;17.95;78.97;100980.78;5031384;28;20135;-84
2022/07/07 00:22:53;;;;;;;9.55;2.55;;;20.00;87.80;;;17.91;78.62;100974.00;5044349;28;20125;-83
2022/07/07 00:25:20;;;;;;;5.10;2.17;;;20.10;87.70;;;17.98;79.25;100966.56;5049491;28;20041;-84
2022/07/07 00:27:47;;;;;;;6.63;2.05;;;20.10;87.70;;;17.94;79.10;100964.47;5050701;28;20055;-84
2022/07/07 00:30:15;;;;;;;3.92;2.17;;;20.10;88.20;;;17.91;79.47;100954.72;5052770;28;20553;-84
2022/07/07 00:32:44;;;;;;;6.28;2.38;;;20.00;88.10;;;17.91;80.08;100949.22;5054209;28;20049;-83
2022/07/07 00:35:11;;;;;;;4.63;2.00;;;20.00;88.40;;;17.90;79.39;100947.56;5052281;28;20091;-83
2022/07/07 00:37:38;;;;;;;4.55;1.95;;;20.10;88.30;;;17.88;79.78;100949.69;5051759;28;20151;-84
2022/07/07 00:40:07;;;;;;;4.00;1.88;;;20.00;88.40;;;17.91;80.16;100942.88;5024445;28;20045;-83
2022/07/07 00:42:34;;;;;;;6.70;2.08;;;20.10;88.80;;;17.87;80.72;100941.66;5062162;28;20068;-84
2022/07/07 00:45:02;;;;;;;5.60;1.98;;;20.00;88.70;;;17.89;80.78;100936.75;5072904;28;20837;-84
2022/07/07 00:47:31;;;;;;;8.15;2.28;;;20.00;88.80;;;17.90;80.36;100933.78;5059368;28;20049;-84
2022/07/07 00:50:01;;;;;;;8.10;2.28;;;20.00;88.60;;;17.90;80.65;100930.19;5052604;28;20250;-84
2022/07/07 00:52:28;;;;;;;5.05;2.00;;;20.00;88.90;;;17.90;80.92;100931.03;5053391;28;20047;-84
2022/07/07 00:54:59;;;;;;;6.35;2.00;;;20.00;89.10;;;17.92;81.69;100922.56;5051538;28;20037;-84
2022/07/07 00:57:27;;;;;;;6.10;1.80;;;20.00;89.40;;;17.89;82.61;100923.81;5062254;28;20041;-84
2022/07/07 00:59:58;;;;;;;7.88;2.38;;;20.00;89.80;;;17.91;82.08;100921.69;5048802;28;20045;-84
2022/07/07 01:02:28;;;;;;;7.10;2.10;;;20.00;89.80;;;17.87;82.33;100925.97;5054886;28;20128;-84
2022/07/07 01:04:56;;;;;;;7.47;2.20;;;20.00;90.00;;;17.88;82.53;100922.16;5072421;28;20045;-84
2022/07/07 01:07:24;;;;;;;6.40;2.22;;;20.10;90.10;;;17.91;82.88;100920.84;5070485;28;20045;-84
2022/07/07 01:09:52;;;;;;;6.43;2.10;;;20.00;90.20;;;17.91;82.55;100915.34;5056519;28;20041;-83
2022/07/07 01:12:19;;;;;;;6.75;2.15;;;20.00;90.20;;;17.90;83.05;100905.41;5044653;28;20139;-84
2022/07/07 01:14:46;;;;;;;6.28;2.60;;;20.00;90.20;;;17.88;83.59;100888.28;5047845;28;20053;-83
2022/07/07 01:17:14;;;;;;;8.15;2.35;;;20.10;90.70;;;17.90;83.73;100895.25;5044980;28;20147;-84
2022/07/07 01:19:41;;;;;;;8.80;3.03;;;20.00;90.90;;;17.85;83.89;100900.56;5051932;28;20051;-84
2022/07/07 01:22:13;;;;;;;6.07;2.60;;;20.00;91.00;;;17.84;84.41;100892.50;5061917;28;20123;-84
2022/07/07 01:24:42;;;;;;;7.88;2.47;;;20.00;91.00;;;17.89;84.56;100887.19;5063913;28;20114;-83
2022/07/07 01:27:13;;;;;;;5.88;2.55;;;20.00;91.30;;;17.84;85.02;100882.38;5060578;28;20047;-84
2022/07/07 01:29:43;;;;;;;4.95;2.17;;;20.00;91.60;;;17.84;85.05;100876.88;5064199;28;20037;-84
2022/07/07 01:32:11;;;;;;;9.40;2.40;;;20.00;91.50;;;17.85;84.96;100867.53;5053305;28;20051;-84
2022/07/07 01:34:43;;;;;;;6.63;2.45;;;20.00;92.00;;;17.83;84.94;100872.38;5052031;28;20040;-83
2022/07/07 01:37:11;;;;;;;6.15;2.28;;;20.00;91.60;;;17.82;85.82;100878.97;5059544;28;20047;-83
2022/07/07 01:39:41;;;;;;;6.28;2.55;;;20.00;92.00;;;17.82;85.27;100876.22;5065279;28;20071;-83
2022/07/07 01:42:10;;;;;;;7.68;2.63;;;20.00;91.90;;;17.82;85.60;100878.09;5038156;28;20505;-84
2022/07/07 01:44:39;;;;;;;6.50;2.70;;;20.00;92.00;;;17.81;86.48;100870.94;5051091;28;20095;-84
2022/07/07 01:47:08;;;;;;;7.10;2.90;;;20.00;92.00;;;17.81;87.03;100871.75;5050467;28;20532;-83
2022/07/07 01:49:36;;;;;;;6.68;3.13;;;20.00;92.60;;;17.78;87.60;100867.56;5051457;28;20040;-83
2022/07/07 01:52:05;;;;;;;5.10;2.80;;;19.90;92.80;;;17.75;87.85;100861.66;5057390;28;20079;-83
2022/07/07 01:54:34;;;;;;;6.00;3.13;;;20.00;93.00;;;17.73;88.83;100863.78;5070072;28;20044;-84
2022/07/07 01:57:04;;;;;;;9.57;3.15;;;20.00;93.60;;;17.67;88.43;100845.38;5068279;28;20155;-84
2022/07/07 01:59:32;;;;;;;6.70;3.72;;;19.90;93.20;;;17.67;88.74;100842.63;5027824;28;20043;-84
2022/07/07 02:01:59;;;;;;;6.63;3.40;;;20.00;93.40;;;17.65;89.28;100840.13;5054130;28;20049;-83
2022/07/07 02:04:27;;;;;;;7.70;3.55;;;20.00;93.70;;;17.63;89.92;100831.25;5050385;28;20051;-84
2022/07/07 02:06:54;;;;;;;11.43;4.07;;;19.90;94.00;;;17.63;91.08;100841.41;5045331;28;20076;-83
2022/07/07 02:09:21;;;;;;;8.30;3.83;;;19.90;94.70;;;17.62;89.99;100832.31;5015702;28;20459;-84
2022/07/07 02:11:49;;;;;;;10.15;4.43;;;19.90;94.20;;;17.58;89.58;100833.84;5052011;28;20124;-83
2022/07/07 02:14:17;;;;;;;8.60;3.65;;;19.90;94.00;;;17.55;90.72;100835.13;5033437;28;20041;-84
2022/07/07 02:16:44;;;;;;;10.13;4.38;;;19.90;94.20;;;17.53;90.64;100836.41;5066481;28;20052;-83
2022/07/07 02:19:12;;;;;;;8.52;4.60;;;19.90;94.30;;;17.55;90.96;100840.63;5065305;28;20079;-83
2022/07/07 02:21:39;;;;;;;9.32;4.40;;;19.90;94.30;;;17.56;90.51;100836.78;5045373;28;20052;-83
2022/07/07 02:24:06;;;;;;;8.90;4.10;;;19.90;94.40;;;17.58;90.27;100831.91;5039363;28;20051;-83
2022/07/07 02:26:34;;;;;;;9.38;4.45;;;19.90;94.30;;;17.59;90.89;100833.63;5055825;28;20084;-84
2022/07/07 02:29:01;;;;;;;12.30;4.60;;;19.90;94.40;;;17.59;90.09;100830.00;5051542;28;20051;-83
2022/07/07 02:31:30;;;;;;;7.47;3.95;;;19.90;94.30;;;17.61;90.41;100825.13;5062043;28;20040;-84
2022/07/07 02:33:57;;;;;;;11.15;3.90;;;19.90;94.50;;;17.56;91.07;100831.28;5050949;28;20128;-84
2022/07/07 02:36:24;;;;;;;9.98;4.25;;;19.90;94.50;;;17.57;90.72;100819.22;5049931;28;20051;-83
2022/07/07 02:38:51;;;;;;;9.77;4.78;;;19.80;94.60;;;17.55;90.91;100826.88;5050141;28;20053;-83
2022/07/07 02:41:19;;;;;;;7.50;4.13;;;19.80;94.50;;;17.55;91.09;100829.63;5068267;28;20044;-84
2022/07/07 02:43:46;;;;;;;8.77;4.50;;;19.80;94.70;;;17.55;91.89;100821.38;5056210;28;20052;-84
2022/07/07 02:46:13;;;;;;;8.75;4.15;;;19.80;95.20;;;17.55;92.52;100828.75;5057512;28;20041;-83
2022/07/07 02:48:42;;;;;;;7.72;4.38;;;19.80;95.30;;;17.55;92.73;100824.13;5043318;28;20085;-84
2022/07/07 02:51:09;;;;;;;7.32;4.10;;;19.80;95.60;;;17.57;93.12;100819.22;5066028;28;20052;-84
2022/07/07 02:53:37;;;;;;;8.30;4.20;;;19.80;95.70;;;17.56;93.17;100820.28;5066707;28;20127;-84
2022/07/07 02:56:05;;;;;;;8.43;4.63;;;19.80;95.80;;;17.57;93.07;100819.22;5053449;28;20055;-83
2022/07/07 02:58:33;;;;;;;8.82;4.78;;;19.80;96.00;;;17.53;94.13;100823.47;5044171;28;20036;-84
2022/07/07 03:01:00;;;;;;;7.90;4.60;;;19.80;96.50;;;17.50;95.50;100814.84;5068447;28;20139;-83
2022/07/07 03:03:27;;;;;;;9.38;4.55;;;19.80;96.90;;;17.50;96.45;100820.34;5050822;28;20033;-84
2022/07/07 03:05:56;;;;;;;9.77;4.47;;;19.80;97.50;;;17.46;97.40;100813.59;5049704;28;20135;-83
2022/07/07 03:08:23;;;;;;;8.68;4.53;;;19.80;97.90;;;17.52;96.89;100813.53;5042948;28;20033;-84
2022/07/07 03:10:50;;;;;;;8.25;4.13;;;19.80;98.10;;;17.50;97.33;100814.84;5050282;28;20045;-83
2022/07/07 03:13:18;;;;;;;9.73;4.68;;;19.80;98.10;;;17.47;98.25;100820.78;5051873;28;20040;-84
2022/07/07 03:15:46;;;;;;;8.80;4.65;;;19.80;98.40;;;17.48;98.06;100817.81;5054413;28;20044;-84
2022/07/07 03:18:13;;;;;;;8.35;4.53;;;19.80;98.50;;;17.47;98.34;100809.78;5069086;28;20048;-84
2022/07/07 03:20:40;;;;;;;9.23;4.57;;;19.80;98.60;;;17.44;98.59;100811.06;5049788;28;20043;-84
2022/07/07 03:23:08;;;;;;;7.65;4.30;;;19.80;98.80;;;17.45;99.35;100809.16;5050994;28;20041;-84
2022/07/07 03:25:36;;;;;;;9.10;4.68;;;19.80;99.00;;;17.43;100.00;100814.88;5050057;28;20045;-84
2022/07/07 03:28:03;;;;;;;8.82;4.55;;;19.80;99.30;;;17.39;100.00;100808.13;5052978;28;20041;-84
2022/07/07 03:30:30;;;;;;;8.10;4.63;;;19.80;99.80;;;17.38;100.00;100811.94;5036056;28;20073;-84
2022/07/07 03:32:57;;;;;;;10.88;5.22;;;19.70;99.90;;;17.36;100.00;100809.44;5047297;28;20075;-84
2022/07/07 03:35:24;;;;;;;9.38;5.25;;;19.70;99.90;;;17.32;100.00;100807.34;5049662;28;20485;-84
2022/07/07 03:37:52;;;;;;;8.80;5.13;;;19.70;99.90;;;17.27;100.00;100801.66;5030900;28;20501;-84
2022/07/07 03:40:20;;;;;;;11.27;5.20;;;19.70;99.90;;;17.25;100.00;100809.28;5049611;28;20063;-84
2022/07/07 03:42:47;;;;;;;9.48;4.95;;;19.70;99.90;;;17.23;100.00;100804.03;5050729;28;20048;-84
2022/07/07 03:45:15;;;;;;;9.90;4.90;;;19.70;99.90;;;17.20;100.00;100798.97;5048786;28;20052;-84
2022/07/07 03:47:42;;;;;;;10.40;5.13;;;19.70;99.90;;;17.16;100.00;100792.22;5054366;28;20037;-84
2022/07/07 03:50:10;;;;;;;8.60;5.25;;;19.70;99.90;;;17.15;100.00;100791.38;5030803;28;20056;-84
2022/07/07 03:52:37;;;;;;;11.82;5.22;;;19.70;99.90;;;17.18;100.00;100788.16;5050691;28;20614;-84
2022/07/07 03:55:06;;;;;;;10.25;5.20;;;19.60;99.90;;;17.20;100.00;100782.47;5050460;28;20053;-84
2022/07/07 03:57:36;;;;;;;8.48;4.80;;;19.60;99.90;;;17.17;100.00;100777.38;5053033;28;20040;-84
2022/07/07 04:00:03;;;;;;;9.23;5.78;;;19.60;99.90;;;17.19;100.00;100773.38;5040843;28;20106;-84
2022/07/07 04:02:35;;;;;;;8.70;5.05;;;19.60;99.90;;;17.22;100.00;100774.81;5049639;28;20147;-84
2022/07/07 04:05:03;;;;;;;8.88;5.07;;;19.60;99.90;;;17.25;100.00;100768.03;5074517;22;20051;-79
2022/07/07 04:07:30;;;;;;;9.18;5.30;;;19.60;99.90;;;17.25;100.00;100757.88;5072940;28;20047;-79
2022/07/07 04:09:57;;;;;;;8.65;4.85;;;19.60;99.90;;;17.28;100.00;100756.59;5071937;28;20048;-79
2022/07/07 04:12:24;;;;;;;10.43;4.97;;;19.60;99.90;;;17.25;100.00;100748.78;5072039;28;20037;-79
2022/07/07 04:14:53;;;;;;;9.88;4.93;;;19.60;99.90;;;17.25;100.00;100749.63;5072869;28;20456;-79
2022/07/07 04:17:20;;;;;;;11.55;5.35;;;19.60;99.90;;;17.27;100.00;100744.75;5075521;28;20113;-79
2022/07/07 04:19:47;;;;;;;9.05;4.32;;;19.60;99.90;;;17.27;100.00;100738.38;5084909;28;20423;-79
2022/07/07 04:22:14;;;;;;;8.40;4.82;;;19.60;99.90;;;17.29;100.00;100737.13;5076145;28;20119;-80
2022/07/07 04:24:41;;;;;;;9.30;5.05;;;19.60;99.90;;;17.32;100.00;100735.81;5073199;28;20076;-79
2022/07/07 04:27:10;;;;;;;10.57;5.35;;;19.60;99.90;;;17.27;100.00;100733.75;5068780;28;20064;-79
2022/07/07 04:29:37;;;;;;;9.52;4.68;;;19.60;99.90;;;17.27;100.00;100733.75;5072782;28;20489;-79
2022/07/07 04:32:07;;;;;;;10.10;5.53;;;19.60;99.90;;;17.32;100.00;100746.81;5072604;28;20124;-79
2022/07/07 04:34:34;;;;;;;9.70;4.88;;;19.60;99.90;;;17.31;100.00;100742.41;5077552;28;20461;-79
2022/07/07 04:37:01;;;;;;;9.10;4.43;;;19.60;99.90;;;17.32;100.00;100741.31;5084087;28;20067;-79
2022/07/07 04:39:29;;;;;;;9.35;5.05;;;19.60;99.90;;;17.35;100.00;100741.72;5092960;28;20119;-79
2022/07/07 04:41:56;;;;;;;10.70;5.15;;;19.60;99.90;;;17.37;100.00;100747.00;5080839;28;20127;-79
2022/07/07 04:44:24;;;;;;;9.05;4.90;;;19.60;99.90;;;17.38;100.00;100748.66;5068203;28;20737;-79
2022/07/07 04:46:51;;;;;;;7.90;4.78;;;19.60;99.90;;;17.42;100.00;100747.19;5072331;28;20047;-79
2022/07/07 04:49:20;;;;;;;11.60;5.18;;;19.60;99.90;;;17.38;100.00;100751.41;5074742;28;20093;-79
2022/07/07 04:51:47;;;;;;;9.77;5.40;;;19.60;99.90;;;17.40;100.00;100749.28;5076520;28;20415;-79
2022/07/07 04:54:14;;;;;;;11.55;5.93;;;19.60;99.90;;;17.38;100.00;100754.16;5072508;28;20079;-79
2022/07/07 04:56:42;;;;;;;10.52;5.95;;;19.60;99.90;;;17.32;100.00;100757.81;5072452;28;20568;-79
2022/07/07 04:59:09;;;;;;;11.50;5.90;;;19.60;99.90;;;17.32;100.00;100753.16;5072355;28;20408;-82
2022/07/07 05:01:36;;;;;;;10.35;6.22;;;19.60;99.90;;;17.28;100.00;100756.59;5071435;28;20399;-80
2022/07/07 05:04:04;;;;;;;9.55;5.65;;;19.60;99.90;;;17.23;100.00;100753.66;5054590;28;20158;-84
2022/07/07 05:06:32;;;;;;;9.75;6.10;;;19.50;99.90;;;17.24;100.00;100758.09;5071289;28;20131;-85
2022/07/07 05:08:59;;;;;;;9.00;6.30;;;19.50;99.90;;;17.23;100.00;100761.91;5080861;28;20044;-85
2022/07/07 05:11:27;;;;;;;9.40;5.93;;;19.50;99.90;;;17.18;100.00;100763.41;5071798;28;20119;-84
2022/07/07 05:13:54;;;;;;;11.95;6.45;;;19.50;99.90;;;17.20;100.00;100765.94;5072339;28;20128;-85
2022/07/07 05:16:21;;;;;;;9.13;5.68;;;19.50;99.90;;;17.23;100.00;100764.66;5071880;28;20080;-85
2022/07/07 05:18:48;;;;;;;12.98;6.50;;;19.50;99.90;;;17.16;100.00;100764.72;5070045;28;20048;-84
2022/07/07 05:21:16;;;;;;;12.55;6.65;;;19.50;99.90;;;17.17;100.00;100775.50;5071637;28;20571;-84
2022/07/07 05:23:44;;;;;;;9.50;6.15;;;19.50;99.90;;;17.19;100.00;100775.25;5070257;28;20037;-84
2022/07/07 05:26:12;;;;;;;11.15;6.50;;;19.50;99.90;;;17.15;100.00;100774.88;5071623;28;20454;-84
2022/07/07 05:28:41;;;;;;;9.45;6.18;;;19.50;99.90;;;17.20;100.00;100779.72;5053749;28;20047;-84
2022/07/07 05:31:10;;;;;;;10.18;5.90;;;19.50;99.90;;;17.20;100.00;100777.78;5071581;28;20052;-85
2022/07/07 05:33:37;;;;;;;12.52;6.10;;;19.50;99.90;;;17.19;100.00;100767.88;5072235;28;20044;-84
2022/07/07 05:36:05;;;;;;;10.25;6.53;;;19.40;99.90;;;17.21;100.00;100778.66;5070642;28;20049;-85
2022/07/07 05:38:32;;;;;;;8.60;5.70;;;19.50;99.90;;;17.22;100.00;100776.75;5071456;28;20047;-84
2022/07/07 05:41:02;;;;;;;9.23;4.30;;;19.40;99.90;;;17.20;100.00;100782.47;5072461;28;20059;-84
2022/07/07 05:43:29;;;;;;;6.90;3.67;;;19.40;99.90;;;17.14;100.00;100778.69;5078405;28;20115;-83
2022/07/07 05:45:56;;;;;;;8.20;3.10;;;19.40;99.90;;;17.15;100.00;100787.78;5071124;28;20121;-84
2022/07/07 05:48:24;;;;;;;8.25;3.47;;;19.40;99.90;;;17.19;100.00;100797.25;5070934;28;20064;-84
2022/07/07 05:50:51;;;;;;;5.82;3.78;;;19.40;99.90;;;17.25;100.00;100790.03;5070438;28;20044;-86
2022/07/07 05:53:18;;;;;;;7.50;3.63;;;19.40;99.90;;;17.20;100.00;100794.28;5063108;28;20045;-86
2022/07/07 05:55:45;;;;;;;6.20;3.92;;;19.40;99.90;;;17.14;100.00;100800.69;5069971;28;20131;-84
2022/07/07 05:58:15;;;;;;;7.90;3.95;;;19.40;99.90;;;17.18;100.00;100810.19;5071942;28;20036;-84
2022/07/07 06:00:42;;;;;;;6.68;4.18;;;19.40;99.90;;;17.30;100.00;100795.72;5075181;28;20044;-83
2022/07/07 06:03:09;;;;;;;7.35;4.53;;;19.40;99.90;;;17.39;100.00;100799.88;5071470;28;20115;-79
2022/07/07 06:05:37;;;;;;;8.30;4.82;;;19.40;99.90;;;17.53;100.00;100808.88;5070698;28;20062;-88
2022/07/07 06:08:04;;;;;;;7.32;4.70;;;19.40;99.90;;;17.61;100.00;100802.25;5071828;28;20048;-90
2022/07/07 06:10:32;;;;;;;10.15;5.15;;;19.40;99.90;;;17.61;100.00;100799.50;5048830;28;20047;-87
2022/07/07 06:12:59;;;;;;;8.18;5.28;;;19.50;99.90;;;17.59;100.00;100799.72;5070398;28;20052;-90
2022/07/07 06:15:30;;;;;;;8.30;5.80;;;19.50;99.90;;;17.56;100.00;100798.28;5075151;28;20036;-88
2022/07/07 06:17:59;;;;;;;10.25;6.22;;;19.50;99.90;;;17.57;100.00;100805.47;5055629;28;20053;-89
2022/07/07 06:20:27;;;;;;;9.88;6.05;;;19.50;99.90;;;17.59;100.00;100808.84;5069497;28;20052;-89
2022/07/07 06:22:54;;;;;;;12.50;6.15;;;19.50;99.90;;;17.51;100.00;100811.84;5070654;28;20136;-90
2022/07/07 06:25:21;;;;;;;8.07;5.93;;;19.50;99.90;;;17.72;100.00;100812.53;5051928;28;20137;-89
2022/07/07 06:27:48;;;;;;;10.43;6.93;;;19.60;99.90;;;17.95;100.00;100820.19;5071075;28;20779;-89
2022/07/07 06:30:16;;;;;;;10.15;6.10;;;19.70;99.90;;;17.85;100.00;100817.13;5068051;28;20029;-86
2022/07/07 06:32:45;;;;;;;10.18;5.75;;;19.60;99.90;;;17.72;100.00;100818.03;5063421;28;20762;-86
2022/07/07 06:35:12;;;;;;;8.65;5.70;;;19.60;99.90;;;17.73;100.00;100819.75;5090052;28;20086;-85
2022/07/07 06:37:39;;;;;;;9.50;5.68;;;19.70;99.90;;;17.55;100.00;100826.88;5053136;28;20052;-85
2022/07/07 06:40:08;;;;;;;13.07;5.60;;;19.60;99.90;;;17.58;100.00;100823.66;5051877;28;20055;-86
2022/07/07 06:42:36;;;;;;;9.07;5.32;;;19.60;99.90;;;17.66;100.00;100832.72;5070176;28;20127;-86
2022/07/07 06:45:08;;;;;;;8.82;5.50;;;19.70;99.90;;;17.71;100.00;100832.88;5067559;28;20412;-85
2022/07/07 06:47:35;;;;;;;10.73;5.55;;;19.70;99.90;;;17.67;100.00;100832.50;5070362;28;20040;-85
2022/07/07 06:50:05;;;;;;;7.03;5.30;;;19.70;99.90;;;17.70;100.00;100825.69;5060453;28;20124;-85
2022/07/07 06:52:33;;;;;;;8.70;5.40;;;19.70;99.90;;;17.69;100.00;100835.03;5090755;28;20038;-85
2022/07/07 06:55:00;;;;;;;8.95;5.00;;;19.70;99.90;;;17.76;100.00;100835.78;5069720;28;20087;-85
2022/07/07 06:57:27;;;;;;;8.25;4.45;;;19.70;99.90;;;17.77;100.00;100843.00;5070092;28;20044;-85
2022/07/07 06:59:54;;;;;;;5.78;3.75;;;19.70;99.90;;;17.76;100.00;100836.66;5051385;28;20125;-85
2022/07/07 07:02:22;;;;;;;6.22;3.80;;;19.70;99.90;;;17.77;100.00;100845.75;5062572;28;20070;-84
2022/07/07 07:04:50;;;;;;;6.55;3.60;;;19.70;99.90;;;17.72;100.00;100840.06;5051632;28;20136;-85
2022/07/07 07:07:19;;;;;;;4.88;2.75;;;19.80;99.90;;;17.68;100.00;100842.41;5062149;28;20048;-85
2022/07/07 07:09:46;;;;;;;6.60;2.50;;;19.70;99.90;;;17.67;100.00;100846.25;5071714;28;20116;-85
2022/07/07 07:12:13;;;;;;;5.82;2.63;;;19.70;99.90;;;17.63;100.00;100855.16;5063635;28;20094;-85
2022/07/07 07:14:41;;;;;;;8.98;2.35;;;19.70;99.90;;;17.59;100.00;100860.28;5063276;28;20068;-85
2022/07/07 07:17:08;;;;;;;7.25;2.85;;;19.60;99.90;;;17.51;100.00;100860.53;5061585;28;20716;-85
2022/07/07 07:19:35;;;;;;;6.07;2.55;;;19.60;99.90;;;17.50;100.00;100861.63;5067624;28;20667;-85
2022/07/07 07:22:02;;;;;;;6.70;2.42;;;19.70;99.90;;;17.47;100.00;100865.66;5067901;28;20531;-85
2022/07/07 07:24:31;;;;;;;7.25;2.00;;;19.60;99.90;;;17.39;100.00;100880.50;5063308;28;20068;-85
2022/07/07 07:26:58;;;;;;;6.95;2.10;;;19.60;99.90;;;17.42;100.00;100887.50;5063338;28;20111;-89
2022/07/07 07:29:25;;;;;;;7.97;2.03;;;19.70;99.90;;;17.36;100.00;100885.59;5054488;28;20473;-88
2022/07/07 07:31:52;;;;;;;3.92;1.40;;;19.60;99.90;;;17.32;100.00;100889.88;5071621;28;20143;-85
2022/07/07 07:34:20;;;;;;;4.68;1.40;;;19.50;99.90;;;17.36;100.00;100893.88;5063718;28;20048;-85
2022/07/07 07:36:47;;;;;;;7.22;1.58;;;19.50;99.90;;;17.58;100.00;100900.72;5062248;28;20072;-87
2022/07/07 07:39:14;;;;;;;8.13;1.90;;;19.50;99.90;;;17.78;100.00;100900.59;5054026;28;20059;-84
2022/07/07 07:41:43;;;;;;;8.32;1.90;;;19.60;99.90;;;18.07;100.00;100913.97;5050192;28;20461;-84
2022/07/07 07:44:11;;;;;;;4.53;1.60;;;19.60;99.90;;;18.43;100.00;100909.59;5043169;28;20417;-84
2022/07/07 07:46:38;;;;;;;5.95;1.90;;;19.60;99.90;;;18.79;100.00;100911.56;5055240;28;20119;-84
2022/07/07 07:49:06;;;;;;;5.35;1.65;;;19.70;99.90;;;18.67;100.00;100908.72;5056504;28;20041;-84
2022/07/07 07:51:33;;;;;;;7.07;1.70;;;19.80;99.90;;;18.44;100.00;100914.06;5045677;28;20554;-83
2022/07/07 07:54:01;;;;;;;8.05;1.40;;;19.80;99.90;;;18.14;100.00;100914.72;5061172;28;20063;-84
2022/07/07 07:56:28;;;;;;;7.60;1.73;;;19.80;99.90;;;17.91;100.00;100913.44;5061774;28;20493;-84
2022/07/07 07:58:57;;;;;;;10.32;2.25;;;19.80;99.90;;;17.90;100.00;100917.25;5071802;28;20116;-85
2022/07/07 08:01:24;;;;;;;5.13;1.30;;;19.80;99.90;;;18.03;100.00;100935.59;5057156;28;20052;-84
2022/07/07 08:03:51;;;;;;;8.50;1.55;;;19.80;99.90;;;18.25;100.00;100933.28;5059440;28;20080;-84
2022/07/07 08:06:19;;;;;;;9.82;1.80;;;19.80;99.90;;;18.63;100.00;100928.69;5058115;28;20041;-85
2022/07/07 08:08:46;;;;;;;8.25;1.67;;;19.80;99.90;;;18.80;100.00;100917.94;5058266;28;20037;-85
2022/07/07 08:11:13;;;;;;;7.80;1.63;;;19.90;99.90;;;18.88;100.00;100924.00;5062090;28;20483;-85
2022/07/07 08:13:40;;;;;;;8.35;1.63;;;20.00;99.90;;;18.78;100.00;100925.59;5064251;28;20044;-85
2022/07/07 08:16:09;;;;;;;8.38;2.00;;;20.00;99.90;;;18.45;100.00;100935.88;5052257;28;20044;-84
2022/07/07 08:18:36;;;;;;;7.05;1.38;;;20.00;99.90;;;18.23;100.00;100924.41;5073826;28;20064;-84
2022/07/07 08:21:04;;;;;;;6.03;1.40;;;20.00;99.90;;;18.16;100.00;100941.00;5068005;28;20044;-85
2022/07/07 08:23:31;;;;;;;7.20;1.27;;;20.00;99.90;;;18.18;99.99;100951.78;5068556;28;20543;-85
2022/07/07 08:25:58;;;;;;;9.15;1.45;;;19.90;99.90;;;18.25;100.00;100952.56;5069307;28;20098;-87
2022/07/07 08:28:25;;;;;;;5.65;1.33;;;20.00;99.90;;;18.32;100.00;100960.81;5067403;28;20036;-86
2022/07/07 08:30:52;;;;;;;8.38;1.40;;;19.90;99.90;;;18.45;97.92;100959.81;5070843;28;20116;-88
2022/07/07 08:33:21;;;;;;;6.88;1.20;;;20.00;99.90;;;18.58;100.00;100959.69;5068353;28;20036;-91
2022/07/07 08:35:48;;;;;;;5.10;1.40;;;19.90;99.90;;;18.66;98.40;100956.66;5054957;28;20520;-90
2022/07/07 08:38:16;;;;;;;6.13;1.35;;;20.00;99.90;;;18.82;98.01;100959.94;5049697;28;20045;-88
2022/07/07 08:40:44;;;;;;;5.63;1.25;;;20.00;99.90;;;19.04;97.87;100963.94;5050639;28;20163;-88
2022/07/07 08:43:11;;;;;;;6.30;1.52;;;20.10;99.90;;;19.08;93.35;100970.66;5041866;28;20779;-88
2022/07/07 08:45:38;;;;;;;7.63;1.30;;;20.10;99.90;;;19.11;95.74;100969.34;5062732;28;20045;-89
2022/07/07 08:48:06;;;;;;;4.18;1.23;;;20.20;99.90;;;19.27;97.33;100974.25;5066269;28;20139;-89
2022/07/07 08:50:38;;;;;;;5.68;1.20;;;20.20;99.90;;;19.37;96.67;100972.88;5054019;28;20043;-89
2022/07/07 08:53:08;;;;;;;3.42;0.93;;;20.20;99.90;;;19.59;94.11;100975.97;5052198;28;20535;-89
2022/07/07 08:55:38;;;;;;;5.55;1.13;;;20.30;99.90;;;19.56;92.50;100981.97;5071372;28;20043;-88
2022/07/07 08:58:06;;;;;;;7.10;1.42;;;20.30;99.90;;;19.23;90.84;100974.94;5072504;28;20116;-89
2022/07/07 09:00:33;;;;;;;4.72;1.10;;;20.30;99.90;;;19.06;90.51;100994.88;5068402;28;20044;-88
2022/07/07 09:03:03;;;;;;;3.20;1.00;;;20.40;99.90;;;18.90;91.08;100996.31;5082287;28;20582;-90
2022/07/07 09:05:37;;;;;;;3.80;1.10;;;20.30;99.90;;;18.69;92.17;101003.06;5071978;28;20045;-86
2022/07/07 09:08:18;;;;;;;5.07;1.08;;;20.30;99.90;;;18.40;93.36;101012.03;5071960;28;20776;-85
2022/07/07 09:10:45;;;;;;;3.23;1.10;;;20.30;99.90;;;18.18;96.48;101015.16;5070419;28;20078;-84
2022/07/07 09:13:26;;;;;;;5.50;1.27;;;20.20;99.90;;;18.11;99.89;101015.19;5069643;28;20070;-82
2022/07/07 09:15:56;;;;;;;5.72;1.48;;;20.20;99.90;;;18.17;99.94;101018.97;5066286;28;20035;-80
2022/07/07 09:18:32;;;;;;;7.50;1.00;;;20.20;99.90;;;18.27;100.00;101033.09;5077227;28;20068;-84
2022/07/07 09:21:02;;;;;;;6.07;1.20;;;20.10;99.90;;;18.21;99.10;101028.47;5070831;28;20508;-82
2022/07/07 09:23:29;;;;;;;5.22;1.30;;;20.10;99.90;;;18.10;100.00;101056.75;5068930;28;20036;-81
2022/07/07 09:25:57;;;;;;;6.03;1.45;;;20.10;99.90;;;18.02;100.00;101046.00;5070537;28;20045;-83
2022/07/07 09:28:25;;;;;;;5.13;1.10;;;20.00;99.90;;;18.11;100.00;101052.94;5062873;28;20068;-83
2022/07/07 09:30:54;;;;;;;5.68;1.30;;;20.00;99.90;;;18.25;100.00;101048.19;5058468;28;20552;-83
2022/07/07 09:33:24;;;;;;;3.42;1.02;;;20.00;99.90;;;18.46;100.00;101049.72;5061713;28;20045;-82
2022/07/07 09:38:44;;;;;;;2.78;0.80;;;20.00;99.90;;;18.82;100.00;101042.66;5076359;28;20303;-84
2022/07/07 09:41:13;;;;;;;3.25;0.70;;;20.10;99.90;;;19.00;100.00;101050.13;5067653;28;20036;-84
2022/07/07 09:43:48;;;;;;;2.28;0.80;;;20.20;99.90;;;19.17;96.36;101051.19;5071281;28;20496;-84
2022/07/07 09:46:18;;;;;;;2.33;0.73;;;20.20;99.90;;;19.41;97.51;101056.91;5070360;28;20043;-84
2022/07/07 09:48:48;;;;;;;3.17;0.93;;;20.20;99.90;;;19.50;96.20;101061.88;5066374;28;20424;-84
2022/07/07 09:51:23;;;;;;;2.22;0.80;;;20.30;99.90;;;19.67;96.03;101058.50;5065446;28;20072;-82
2022/07/07 09:54:04;;;;;;;2.92;1.00;;;20.40;99.90;;;19.76;95.00;101059.88;5071005;28;20080;-92
2022/07/07 09:56:35;;;;;;;3.70;0.77;;;20.40;99.90;;;19.86;91.51;101065.72;5067225;28;20051;-82
2022/07/07 09:59:05;;;;;;;2.80;0.68;;;20.50;99.90;;;19.98;91.67;101062.16;5068298;28;20040;-82
2022/07/07 10:01:34;;;;;;;3.22;0.77;;;20.60;99.90;;;20.14;91.68;101060.66;5063896;28;20056;-81
2022/07/07 10:04:04;;;;;;;3.45;0.93;;;20.60;99.90;;;20.35;89.90;101085.00;5069185;28;20049;-82
2022/07/07 10:06:34;;;;;;;2.63;0.65;;;20.70;99.90;;;20.55;88.02;101068.09;5088810;22;20109;-83
2022/07/07 10:09:07;;;;;;;3.92;0.73;;;20.70;99.90;;;20.71;85.96;101066.59;5086029;28;20135;-83
2022/07/07 10:11:39;;;;;;;3.10;0.80;;;20.80;99.90;;;20.48;86.14;101072.91;5078008;28;20093;-83
2022/07/07 10:14:18;;;;;;;3.60;0.68;;;20.80;99.90;;;20.23;89.02;101075.84;5084975;28;20123;-83